Terminal Aerodrome Forecast
Issued by NWS

Home | Current Version | Previous Version | Text Only | Print | Product List | Glossary On
Versions: 1 2 3 4 5 6 7 8 9 10 11 12 13 14 15 16 17 18
000
FTUS42 KFFC 231120
TAFFTY
TAF
KFTY 231120Z 2312/2412 10005KT P6SM -RA VCSH FEW008 SCT020 BKN035
      TEMPO 2314/2316 5SM -SHRA BKN008
     FM231600 19005KT 5SM -RA BR OVC012
      TEMPO 2316/2320 3SM TSRA BR BKN008CB
     FM232000 25005KT 3SM -SHRA BR BKN012
     FM232300 27003KT P6SM VCSH BKN012
     FM240300 29004KT 5SM -DZ BR OVC008=

USA.gov is the U.S. government's official web portal to all federal, state and local government web resources and services.